Time;durP1;ratioP1;P1;durP2;ratioP2;P2;SDS_P1;SDS_P2;PMS_P1;PMS_P2;Temp;Humidity;BMP_temperature;BMP_pressure;BME280_temperature;BME280_humidity;BME280_pressure;Samples;Min_cycle;Max_cycle;Signal;HPM_P1;HPM_P2
2022/04/17 00:00:26;;;;;;;6.60;4.38;;;;;;;;;;5012640;28;20100;-71
2022/04/17 00:02:52;;;;;;;7.60;5.30;;;;;;;;;;5012107;28;20044;-72
2022/04/17 00:05:19;;;;;;;6.15;4.70;;;;;;;;;;5011061;28;20112;-71
2022/04/17 00:07:45;;;;;;;6.00;5.05;;;;;;;;;;5009203;28;20033;-72
2022/04/17 00:10:11;;;;;;;7.20;5.32;;;;;;;;;;5014655;28;20037;-71
2022/04/17 00:12:39;;;;;;;6.85;5.13;;;;;;;;;;5013963;28;20100;-71
2022/04/17 00:15:05;;;;;;;7.85;5.18;;;;;;;;;;5012940;28;20042;-71
2022/04/17 00:17:32;;;;;;;8.10;5.55;;;;;;;;;;5017252;28;20049;-71
2022/04/17 00:19:58;;;;;;;7.00;5.00;;;;;;;;;;5018914;28;20037;-71
2022/04/17 00:22:24;;;;;;;6.90;5.10;;;;;;;;;;5013141;28;20029;-72
2022/04/17 00:24:51;;;;;;;7.47;4.60;;;;;;;;;;5011786;28;20484;-71
2022/04/17 00:27:17;;;;;;;7.45;4.78;;;;;;;;;;5021216;28;20596;-71
2022/04/17 00:29:44;;;;;;;5.05;4.43;;;;;;;;;;5019993;28;20029;-72
2022/04/17 00:32:10;;;;;;;7.07;4.80;;;;;;;;;;5022676;28;20013;-71
2022/04/17 00:34:37;;;;;;;7.70;4.65;;;;;;;;;;5017908;28;20030;-71
2022/04/17 00:37:04;;;;;;;6.50;4.30;;;;;;;;;;5017510;28;20064;-72
2022/04/17 00:39:30;;;;;;;6.88;4.53;;;;;;;;;;5014258;28;20049;-71
2022/04/17 00:41:57;;;;;;;13.23;4.93;;;;;;;;;;5011374;28;20433;-71
2022/04/17 00:44:23;;;;;;;7.00;4.80;;;;;;;;;;5010591;28;20030;-73
2022/04/17 00:46:49;;;;;;;9.00;4.93;;;;;;;;;;5015745;28;20034;-72
2022/04/17 00:49:16;;;;;;;9.00;5.38;;;;;;;;;;5010382;28;20477;-71
2022/04/17 00:51:47;;;;;;;8.10;5.18;;;;;;;;;;5006238;28;20030;-71
2022/04/17 00:54:14;;;;;;;6.77;5.20;;;;;;;;;;5014744;28;20065;-71
2022/04/17 00:56:41;;;;;;;8.38;5.05;;;;;;;;;;5010252;28;20032;-71
2022/04/17 00:59:09;;;;;;;7.07;5.10;;;;;;;;;;5005485;28;20042;-71
2022/04/17 01:01:36;;;;;;;6.10;5.22;;;;;;;;;;5020355;28;20040;-71
2022/04/17 01:04:02;;;;;;;8.43;6.13;;;;;;;;;;5008043;28;20109;-72
2022/04/17 01:06:28;;;;;;;6.85;5.40;;;;;;;;;;5008998;28;20038;-71
2022/04/17 01:08:55;;;;;;;6.70;5.55;;;;;;;;;;5013335;28;20029;-72
2022/04/17 01:11:21;;;;;;;8.30;5.82;;;;;;;;;;5017902;28;20022;-71
2022/04/17 01:13:47;;;;;;;7.53;6.05;;;;;;;;;;5011029;28;20406;-71
2022/04/17 01:16:16;;;;;;;10.50;6.75;;;;;;;;;;5011980;28;20140;-71
2022/04/17 01:19:01;;;;;;;9.85;6.90;;;;;;;;;;5008930;28;20501;-71
2022/04/17 01:21:27;;;;;;;8.55;6.50;;;;;;;;;;5017622;28;20522;-71
2022/04/17 01:26:58;;;;;;;10.45;7.10;;;;;;;;;;5021569;28;20061;-70
2022/04/17 01:29:34;;;;;;;9.38;6.70;;;;;;;;;;5011389;28;20046;-71
2022/04/17 01:32:01;;;;;;;8.55;6.68;;;;;;;;;;5012440;28;20033;-72
2022/04/17 01:34:27;;;;;;;8.73;6.47;;;;;;;;;;5013848;28;20381;-73
2022/04/17 01:36:54;;;;;;;8.60;6.90;;;;;;;;;;5010038;28;20034;-71
2022/04/17 01:39:20;;;;;;;9.68;7.30;;;;;;;;;;5011243;28;20053;-71
2022/04/17 01:41:47;;;;;;;7.80;7.03;;;;;;;;;;5025187;28;20120;-71
2022/04/17 01:44:16;;;;;;;14.63;7.70;;;;;;;;;;5010863;28;20660;-71
2022/04/17 01:46:42;;;;;;;9.30;7.50;;;;;;;;;;5011188;28;20083;-71
2022/04/17 01:49:09;;;;;;;7.95;6.97;;;;;;;;;;5010152;28;20021;-72
2022/04/17 01:51:39;;;;;;;7.20;6.50;;;;;;;;;;5013221;28;20026;-71
2022/04/17 01:54:06;;;;;;;9.57;6.00;;;;;;;;;;5014770;28;20037;-72
2022/04/17 01:56:32;;;;;;;7.85;6.65;;;;;;;;;;5017708;28;20022;-71
2022/04/17 01:58:59;;;;;;;7.55;6.75;;;;;;;;;;5012242;28;20039;-71
2022/04/17 02:01:25;;;;;;;7.32;6.63;;;;;;;;;;5009174;28;20038;-72
2022/04/17 02:03:51;;;;;;;9.75;6.85;;;;;;;;;;5009452;28;20036;-71
2022/04/17 02:06:17;;;;;;;9.73;6.70;;;;;;;;;;5010057;28;20025;-71
2022/04/17 02:08:44;;;;;;;12.55;7.03;;;;;;;;;;5009328;28;20076;-71
2022/04/17 02:11:10;;;;;;;7.75;6.97;;;;;;;;;;5014277;28;20477;-72
2022/04/17 02:13:37;;;;;;;11.63;7.35;;;;;;;;;;5005536;28;20100;-71
2022/04/17 02:16:03;;;;;;;8.57;7.45;;;;;;;;;;5007241;28;20049;-71
2022/04/17 02:18:29;;;;;;;8.52;7.57;;;;;;;;;;5005818;28;20048;-71
2022/04/17 02:20:56;;;;;;;9.38;6.72;;;;;;;;;;5004587;28;20038;-72
2022/04/17 02:23:22;;;;;;;9.23;7.63;;;;;;;;;;5003701;28;20018;-71
2022/04/17 02:25:48;;;;;;;11.13;7.30;;;;;;;;;;5013086;28;20258;-72
2022/04/17 02:28:14;;;;;;;8.80;6.30;;;;;;;;;;5007250;28;20061;-72
2022/04/17 02:30:40;;;;;;;8.43;6.00;;;;;;;;;;5006150;28;20816;-72
2022/04/17 02:33:06;;;;;;;8.68;6.13;;;;;;;;;;5017196;28;20486;-72
2022/04/17 02:35:33;;;;;;;7.13;5.80;;;;;;;;;;5003641;28;20038;-71
2022/04/17 02:37:59;;;;;;;8.13;6.10;;;;;;;;;;5004546;28;20026;-72
2022/04/17 02:40:25;;;;;;;7.07;6.03;;;;;;;;;;5008297;28;20429;-74
2022/04/17 02:42:53;;;;;;;9.73;6.32;;;;;;;;;;5014675;28;20026;-72
2022/04/17 02:45:20;;;;;;;9.77;5.80;;;;;;;;;;5004276;28;20026;-72
2022/04/17 02:47:47;;;;;;;5.18;4.68;;;;;;;;;;5002835;28;20709;-72
2022/04/17 02:50:15;;;;;;;6.63;4.25;;;;;;;;;;5003442;28;20120;-71
2022/04/17 02:52:42;;;;;;;6.68;4.47;;;;;;;;;;5004469;28;20037;-72
2022/04/17 02:55:08;;;;;;;5.68;3.90;;;;;;;;;;5007252;28;20583;-72
2022/04/17 02:57:34;;;;;;;6.15;4.78;;;;;;;;;;5021979;28;20031;-73
2022/04/17 03:00:01;;;;;;;6.97;5.75;;;;;;;;;;5015490;28;20124;-72
2022/04/17 03:07:58;;;;;;;7.68;5.13;;;;;;;;;;5008863;28;20773;-72
2022/04/17 03:10:25;;;;;;;5.55;4.85;;;;;;;;;;5003709;28;20025;-71
2022/04/17 03:12:51;;;;;;;7.18;4.85;;;;;;;;;;5008241;28;20033;-72
2022/04/17 03:15:17;;;;;;;8.80;5.07;;;;;;;;;;5008077;28;20736;-73
2022/04/17 03:17:43;;;;;;;5.90;5.20;;;;;;;;;;5008287;28;20034;-72
2022/04/17 03:20:09;;;;;;;5.78;4.70;;;;;;;;;;5001216;28;20758;-73
2022/04/17 03:22:36;;;;;;;7.43;4.50;;;;;;;;;;5007201;28;20144;-72
2022/04/17 03:25:04;;;;;;;5.97;4.70;;;;;;;;;;5012040;28;20033;-72
2022/04/17 03:27:30;;;;;;;7.28;5.03;;;;;;;;;;5012774;28;20052;-71
2022/04/17 03:29:56;;;;;;;6.05;4.50;;;;;;;;;;5010034;28;20025;-71
2022/04/17 03:32:23;;;;;;;5.32;4.55;;;;;;;;;;5009236;28;20145;-71
2022/04/17 03:34:49;;;;;;;8.27;4.78;;;;;;;;;;5010078;28;20037;-72
2022/04/17 03:37:15;;;;;;;5.40;4.63;;;;;;;;;;5012437;28;20022;-71
2022/04/17 03:39:42;;;;;;;6.78;4.97;;;;;;;;;;5012123;28;20064;-73
2022/04/17 03:42:08;;;;;;;5.47;4.90;;;;;;;;;;5005222;28;20038;-72
2022/04/17 03:44:35;;;;;;;9.05;6.07;;;;;;;;;;5012802;28;20148;-72
2022/04/17 03:47:01;;;;;;;9.60;6.10;;;;;;;;;;5009947;28;20396;-71
2022/04/17 03:49:29;;;;;;;9.95;6.53;;;;;;;;;;5007688;28;20033;-72
2022/04/17 03:51:55;;;;;;;10.07;5.80;;;;;;;;;;5009040;28;20421;-72
2022/04/17 03:54:21;;;;;;;7.35;5.78;;;;;;;;;;5009563;28;20051;-71
2022/04/17 03:56:47;;;;;;;6.95;6.25;;;;;;;;;;5025071;28;20034;-72
2022/04/17 03:59:14;;;;;;;11.02;7.50;;;;;;;;;;5009258;28;20144;-71
2022/04/17 04:01:41;;;;;;;9.45;6.68;;;;;;;;;;5007417;28;20041;-71
2022/04/17 04:04:07;;;;;;;7.90;5.43;;;;;;;;;;5002895;28;20018;-71
2022/04/17 04:06:33;;;;;;;7.35;5.40;;;;;;;;;;5007295;28;20026;-71
2022/04/17 04:09:00;;;;;;;5.80;5.20;;;;;;;;;;5010809;28;20651;-72
2022/04/17 04:11:26;;;;;;;8.13;5.13;;;;;;;;;;5021609;28;20835;-71
2022/04/17 04:13:54;;;;;;;8.82;5.97;;;;;;;;;;5011577;28;20375;-72
2022/04/17 04:16:20;;;;;;;8.98;6.32;;;;;;;;;;5003967;28;20048;-72
2022/04/17 04:18:46;;;;;;;12.02;8.82;;;;;;;;;;5011866;28;20041;-72
2022/04/17 04:21:12;;;;;;;9.15;7.35;;;;;;;;;;5003328;28;20045;-71
2022/04/17 04:23:40;;;;;;;7.60;6.18;;;;;;;;;;5007049;28;20065;-71
2022/04/17 04:26:06;;;;;;;7.20;5.57;;;;;;;;;;5019029;28;20033;-71
2022/04/17 04:28:38;;;;;;;7.63;5.07;;;;;;;;;;5014242;28;20029;-71
2022/04/17 04:31:09;;;;;;;6.15;5.22;;;;;;;;;;5013022;28;20061;-72
2022/04/17 04:33:36;;;;;;;9.00;5.70;;;;;;;;;;5019480;28;20037;-71
2022/04/17 04:36:04;;;;;;;8.93;5.57;;;;;;;;;;5010574;28;20088;-71
2022/04/17 04:38:31;;;;;;;10.10;5.55;;;;;;;;;;5011731;28;20468;-73
2022/04/17 04:40:59;;;;;;;7.45;5.32;;;;;;;;;;5009405;28;20099;-72
2022/04/17 04:43:25;;;;;;;10.80;7.47;;;;;;;;;;5004649;28;20033;-71
2022/04/17 04:46:06;;;;;;;13.52;8.02;;;;;;;;;;5012048;28;20095;-71
2022/04/17 04:51:27;;;;;;;8.95;5.82;;;;;;;;;;5011826;28;20052;-71
2022/04/17 04:53:55;;;;;;;11.60;7.18;;;;;;;;;;5011980;28;20084;-71
2022/04/17 04:56:22;;;;;;;9.75;7.53;;;;;;;;;;5009415;28;20041;-72
2022/04/17 04:58:48;;;;;;;19.65;6.53;;;;;;;;;;5005531;28;20029;-72
2022/04/17 05:01:14;;;;;;;9.05;7.40;;;;;;;;;;5018297;28;20055;-71
2022/04/17 05:03:41;;;;;;;10.70;7.70;;;;;;;;;;5017194;28;20656;-72
2022/04/17 05:06:10;;;;;;;10.18;7.43;;;;;;;;;;5005400;28;20052;-72
2022/04/17 05:08:36;;;;;;;9.68;6.72;;;;;;;;;;5031733;28;20124;-71
2022/04/17 05:11:02;;;;;;;10.68;7.28;;;;;;;;;;5028992;28;20563;-71
2022/04/17 05:13:29;;;;;;;10.30;8.85;;;;;;;;;;5033373;28;20667;-72
2022/04/17 05:15:55;;;;;;;9.88;7.35;;;;;;;;;;5017376;28;20064;-72
2022/04/17 05:18:21;;;;;;;12.35;7.68;;;;;;;;;;5028729;28;20114;-73
2022/04/17 05:20:47;;;;;;;16.75;7.68;;;;;;;;;;5008978;28;20036;-72
2022/04/17 05:23:22;;;;;;;12.18;7.15;;;;;;;;;;5014810;28;20377;-72
2022/04/17 05:25:50;;;;;;;9.73;7.72;;;;;;;;;;5024498;28;20025;-71
2022/04/17 05:28:17;;;;;;;8.88;7.72;;;;;;;;;;5023043;28;20040;-72
2022/04/17 05:30:43;;;;;;;11.25;7.78;;;;;;;;;;5014275;28;21116;-71
2022/04/17 05:33:10;;;;;;;11.70;8.35;;;;;;;;;;5004108;28;20025;-73
2022/04/17 05:35:36;;;;;;;9.93;6.45;;;;;;;;;;5012390;28;20057;-72
2022/04/17 05:38:02;;;;;;;10.07;7.05;;;;;;;;;;5004705;28;20113;-73
2022/04/17 05:40:29;;;;;;;10.95;8.02;;;;;;;;;;5011114;28;20045;-74
2022/04/17 05:42:56;;;;;;;9.32;7.20;;;;;;;;;;5007043;28;20034;-71
2022/04/17 05:45:22;;;;;;;10.82;7.53;;;;;;;;;;5010198;28;20107;-71
2022/04/17 05:47:49;;;;;;;8.63;6.25;;;;;;;;;;5029102;28;20033;-71
2022/04/17 05:50:15;;;;;;;10.13;6.10;;;;;;;;;;5002231;28;20057;-71
2022/04/17 05:52:41;;;;;;;11.50;7.18;;;;;;;;;;5007935;28;20056;-71
2022/04/17 05:55:09;;;;;;;9.38;7.22;;;;;;;;;;5007623;28;20060;-71
2022/04/17 05:57:36;;;;;;;11.88;7.35;;;;;;;;;;5009022;28;20044;-71
2022/04/17 06:00:03;;;;;;;7.90;6.10;;;;;;;;;;5004704;28;20096;-74
2022/04/17 06:02:29;;;;;;;7.60;5.30;;;;;;;;;;5019815;28;20485;-71
2022/04/17 06:04:55;;;;;;;10.25;5.07;;;;;;;;;;5002902;28;20641;-71
2022/04/17 06:07:28;;;;;;;6.20;4.60;;;;;;;;;;5007442;28;20041;-71
2022/04/17 06:09:54;;;;;;;6.10;5.05;;;;;;;;;;5006067;28;20053;-71
2022/04/17 06:12:21;;;;;;;10.02;6.78;;;;;;;;;;5011673;28;20509;-71
2022/04/17 06:14:47;;;;;;;9.63;5.53;;;;;;;;;;5008488;28;20301;-71
2022/04/17 06:17:13;;;;;;;6.65;5.50;;;;;;;;;;5013622;28;20034;-72
2022/04/17 06:19:39;;;;;;;8.80;5.10;;;;;;;;;;5020774;28;20095;-72
2022/04/17 06:22:06;;;;;;;6.78;5.07;;;;;;;;;;5007763;28;20036;-71
2022/04/17 06:24:33;;;;;;;9.02;5.85;;;;;;;;;;5012789;28;20132;-71
2022/04/17 06:26:59;;;;;;;9.15;6.28;;;;;;;;;;5022028;28;20041;-71
2022/04/17 06:29:25;;;;;;;13.00;6.82;;;;;;;;;;5020671;28;20147;-71
2022/04/17 06:31:51;;;;;;;9.60;6.75;;;;;;;;;;5016509;28;20161;-72
2022/04/17 06:34:18;;;;;;;10.32;6.20;;;;;;;;;;5005770;28;20049;-75
2022/04/17 06:36:44;;;;;;;9.13;5.72;;;;;;;;;;5005007;28;20413;-71
2022/04/17 06:39:10;;;;;;;10.27;6.90;;;;;;;;;;5016175;28;20030;-71
2022/04/17 06:41:36;;;;;;;8.68;6.07;;;;;;;;;;5009254;28;20029;-71
2022/04/17 06:44:02;;;;;;;14.57;7.95;;;;;;;;;;5020558;28;20033;-71
2022/04/17 06:46:28;;;;;;;22.15;10.63;;;;;;;;;;5010481;28;20204;-73
2022/04/17 06:48:55;;;;;;;17.42;11.02;;;;;;;;;;5006404;28;20033;-71
2022/04/17 06:51:24;;;;;;;20.33;10.65;;;;;;;;;;5011295;28;20135;-71
2022/04/17 06:53:50;;;;;;;22.02;11.55;;;;;;;;;;5008188;28;20033;-71
2022/04/17 06:56:18;;;;;;;23.70;12.15;;;;;;;;;;5004815;28;20542;-72
2022/04/17 06:58:48;;;;;;;21.55;10.52;;;;;;;;;;5010079;28;20665;-71
2022/04/17 07:01:14;;;;;;;14.18;10.55;;;;;;;;;;5008705;28;20037;-71
2022/04/17 07:03:44;;;;;;;13.38;11.30;;;;;;;;;;5011186;28;20030;-71
2022/04/17 07:06:11;;;;;;;16.58;11.63;;;;;;;;;;5005764;28;20128;-71
2022/04/17 07:08:37;;;;;;;16.70;13.13;;;;;;;;;;5014103;28;20033;-71
2022/04/17 07:11:04;;;;;;;24.42;16.00;;;;;;;;;;5019123;28;20037;-71
2022/04/17 07:13:30;;;;;;;22.27;15.75;;;;;;;;;;5008458;28;20032;-71
2022/04/17 07:15:56;;;;;;;16.45;12.35;;;;;;;;;;5004042;28;20088;-72
2022/04/17 07:18:23;;;;;;;15.10;11.45;;;;;;;;;;5004940;28;20073;-71
2022/04/17 07:20:49;;;;;;;19.63;12.50;;;;;;;;;;5011918;28;20070;-71
2022/04/17 07:23:15;;;;;;;10.13;8.05;;;;;;;;;;5003627;28;20033;-71
2022/04/17 07:25:41;;;;;;;8.48;6.53;;;;;;;;;;5019514;28;20033;-71
2022/04/17 07:28:14;;;;;;;7.53;5.57;;;;;;;;;;5008954;28;20580;-71
2022/04/17 07:30:41;;;;;;;9.25;6.35;;;;;;;;;;5005887;28;20697;-71
2022/04/17 07:33:07;;;;;;;8.10;6.35;;;;;;;;;;5003394;28;20048;-71
2022/04/17 07:35:33;;;;;;;10.02;4.95;;;;;;;;;;5010419;28;20652;-71
2022/04/17 07:38:04;;;;;;;6.97;5.30;;;;;;;;;;5002642;28;20038;-71
2022/04/17 07:40:32;;;;;;;7.35;5.15;;;;;;;;;;5007746;28;20052;-71
2022/04/17 07:42:59;;;;;;;7.32;4.47;;;;;;;;;;5001946;28;20560;-71
2022/04/17 07:45:25;;;;;;;5.57;4.43;;;;;;;;;;5009040;28;20072;-71
2022/04/17 07:47:52;;;;;;;5.93;4.38;;;;;;;;;;5005969;28;20033;-71
2022/04/17 07:50:19;;;;;;;6.68;4.53;;;;;;;;;;5012289;28;20487;-71
2022/04/17 07:52:45;;;;;;;7.75;4.82;;;;;;;;;;5015510;28;20026;-71
2022/04/17 07:55:12;;;;;;;8.55;5.25;;;;;;;;;;5002485;28;20040;-71
2022/04/17 08:00:57;;;;;;;8.73;6.00;;;;;;;;;;4983465;28;20053;-71
2022/04/17 08:03:45;;;;;;;6.82;5.22;;;;;;;;;;5002667;28;20121;-71
2022/04/17 08:06:15;;;;;;;7.68;4.88;;;;;;;;;;5000978;28;20026;-71
2022/04/17 08:08:41;;;;;;;6.95;4.97;;;;;;;;;;5009770;28;20104;-71
2022/04/17 08:11:08;;;;;;;10.13;5.13;;;;;;;;;;5006077;28;20180;-71
2022/04/17 08:13:35;;;;;;;6.85;4.53;;;;;;;;;;5006735;28;20430;-71
2022/04/17 08:16:02;;;;;;;6.45;5.38;;;;;;;;;;5007935;28;20053;-71
2022/04/17 08:18:28;;;;;;;8.40;4.68;;;;;;;;;;5012795;28;20045;-71
2022/04/17 08:20:54;;;;;;;5.95;4.80;;;;;;;;;;5001116;28;20052;-71
2022/04/17 08:23:20;;;;;;;6.70;5.40;;;;;;;;;;5006301;28;20030;-71
2022/04/17 08:25:46;;;;;;;5.88;5.20;;;;;;;;;;5001986;28;20025;-71
2022/04/17 08:28:13;;;;;;;6.95;5.25;;;;;;;;;;5001575;28;20026;-70
2022/04/17 08:30:39;;;;;;;5.30;4.65;;;;;;;;;;5009196;28;20431;-71
2022/04/17 08:33:06;;;;;;;7.07;4.68;;;;;;;;;;5002108;28;20051;-71
2022/04/17 08:35:32;;;;;;;6.20;4.97;;;;;;;;;;5001607;28;20033;-71
2022/04/17 08:38:00;;;;;;;7.80;4.53;;;;;;;;;;5006515;28;20032;-71
2022/04/17 08:40:26;;;;;;;5.57;4.63;;;;;;;;;;5007793;28;20042;-71
2022/04/17 08:42:53;;;;;;;6.93;4.53;;;;;;;;;;5009386;28;20015;-71
2022/04/17 08:45:19;;;;;;;8.40;5.72;;;;;;;;;;5008456;28;20033;-71
2022/04/17 08:47:46;;;;;;;7.45;5.68;;;;;;;;;;5013678;28;20598;-70
2022/04/17 08:50:13;;;;;;;6.93;5.03;;;;;;;;;;5012871;28;20022;-71
2022/04/17 08:52:41;;;;;;;6.90;5.07;;;;;;;;;;5008549;28;20084;-71
2022/04/17 08:55:07;;;;;;;7.85;5.63;;;;;;;;;;5021897;28;20361;-71
2022/04/17 08:57:33;;;;;;;8.82;5.40;;;;;;;;;;5012251;28;20212;-71
2022/04/17 09:00:00;;;;;;;7.38;5.22;;;;;;;;;;5013523;28;20219;-71
2022/04/17 09:02:26;;;;;;;7.22;5.85;;;;;;;;;;5014873;28;20029;-71
2022/04/17 09:04:52;;;;;;;10.02;6.25;;;;;;;;;;5013476;28;20039;-71
2022/04/17 09:07:18;;;;;;;9.40;6.10;;;;;;;;;;5019420;28;20025;-70
2022/04/17 09:09:52;;;;;;;9.60;6.18;;;;;;;;;;5016548;28;20531;-71
2022/04/17 09:12:19;;;;;;;11.60;6.45;;;;;;;;;;5012017;28;20036;-71
2022/04/17 09:14:45;;;;;;;11.70;6.18;;;;;;;;;;5020677;28;20375;-72
2022/04/17 09:17:11;;;;;;;14.43;5.60;;;;;;;;;;5009860;28;20120;-71
2022/04/17 09:19:37;;;;;;;11.95;5.20;;;;;;;;;;5017768;28;20149;-71
2022/04/17 09:22:05;;;;;;;11.57;5.93;;;;;;;;;;5014395;28;20116;-71
2022/04/17 09:24:35;;;;;;;16.60;7.05;;;;;;;;;;5014322;28;20038;-71
2022/04/17 09:27:02;;;;;;;14.35;6.32;;;;;;;;;;5012673;28;20112;-71
2022/04/17 09:29:29;;;;;;;14.82;6.03;;;;;;;;;;5011715;28;20025;-71
2022/04/17 09:32:02;;;;;;;13.77;6.28;;;;;;;;;;5016198;28;20037;-71
2022/04/17 09:34:29;;;;;;;13.77;7.47;;;;;;;;;;5029212;28;20079;-70
2022/04/17 09:36:58;;;;;;;14.38;5.88;;;;;;;;;;5014335;28;20026;-71
2022/04/17 09:39:31;;;;;;;19.45;6.25;;;;;;;;;;5020598;28;20434;-71
2022/04/17 09:41:58;;;;;;;20.63;6.95;;;;;;;;;;5014156;28;20129;-71
2022/04/17 09:44:37;;;;;;;25.40;10.07;;;;;;;;;;5011910;28;20907;-71
2022/04/17 09:47:07;;;;;;;21.80;9.82;;;;;;;;;;5007740;28;20103;-71
2022/04/17 09:49:49;;;;;;;25.58;8.93;;;;;;;;;;5026371;28;20030;-72
2022/04/17 09:52:16;;;;;;;18.80;8.13;;;;;;;;;;5017072;28;20030;-70
2022/04/17 09:54:42;;;;;;;32.97;10.02;;;;;;;;;;5009923;28;20030;-72
2022/04/17 09:57:09;;;;;;;21.45;7.78;;;;;;;;;;5013226;28;20854;-70
2022/04/17 09:59:37;;;;;;;22.27;6.78;;;;;;;;;;5016146;28;20048;-70
2022/04/17 10:02:04;;;;;;;24.38;6.32;;;;;;;;;;5013798;28;20068;-70
2022/04/17 10:04:31;;;;;;;21.63;6.25;;;;;;;;;;5011667;28;20022;-71
2022/04/17 10:06:59;;;;;;;20.90;6.38;;;;;;;;;;5020883;28;20029;-70
2022/04/17 10:09:26;;;;;;;17.42;5.05;;;;;;;;;;5025310;28;20029;-70
2022/04/17 10:11:56;;;;;;;22.77;5.40;;;;;;;;;;5017203;28;20051;-70
2022/04/17 10:14:22;;;;;;;23.85;5.95;;;;;;;;;;5008154;28;20029;-71
2022/04/17 10:16:50;;;;;;;16.30;5.07;;;;;;;;;;5012332;28;20127;-71
2022/04/17 10:19:19;;;;;;;15.65;5.28;;;;;;;;;;5011761;28;20029;-70
2022/04/17 10:21:46;;;;;;;16.50;5.78;;;;;;;;;;5007622;28;20133;-69
2022/04/17 10:24:16;;;;;;;19.90;7.22;;;;;;;;;;5005849;28;20027;-69
2022/04/17 10:26:47;;;;;;;16.58;4.75;;;;;;;;;;5010569;28;20125;-77
2022/04/17 10:29:35;;;;;;;16.92;5.38;;;;;;;;;;5023620;28;20022;-71
2022/04/17 10:32:27;;;;;;;23.25;6.05;;;;;;;;;;5016924;28;20486;-70
2022/04/17 10:35:12;;;;;;;18.27;5.88;;;;;;;;;;5023601;28;20522;-71
2022/04/17 10:37:39;;;;;;;16.17;4.95;;;;;;;;;;5005458;28;20033;-72
2022/04/17 10:40:05;;;;;;;19.02;5.72;;;;;;;;;;5010308;28;20046;-75
2022/04/17 10:42:35;;;;;;;14.07;4.25;;;;;;;;;;5008212;28;20072;-71
2022/04/17 10:45:05;;;;;;;18.67;5.65;;;;;;;;;;5015971;28;20021;-71
2022/04/17 10:47:31;;;;;;;15.60;4.88;;;;;;;;;;5012450;28;20078;-70
2022/04/17 10:50:00;;;;;;;22.13;5.03;;;;;;;;;;5009901;28;20025;-70
2022/04/17 10:52:31;;;;;;;19.30;4.75;;;;;;;;;;5006631;28;20034;-72
2022/04/17 10:55:07;;;;;;;17.45;4.63;;;;;;;;;;5008506;28;20080;-71
2022/04/17 10:57:42;;;;;;;15.15;4.07;;;;;;;;;;5010275;28;20041;-71
2022/04/17 11:00:28;;;;;;;21.20;5.20;;;;;;;;;;5009773;28;20142;-71
2022/04/17 11:02:54;;;;;;;13.77;4.10;;;;;;;;;;5011738;28;20045;-73
2022/04/17 11:06:09;;;;;;;19.27;3.85;;;;;;;;;;5010068;28;20555;-71
2022/04/17 11:08:24;;;;;;;;;;;;;;;;;;5007851;28;20041;-71
2022/04/17 11:10:53;;;;;;;14.23;3.42;;;;;;;;;;5006610;28;19917;-71
2022/04/17 11:13:20;;;;;;;12.93;3.13;;;;;;;;;;5001906;28;20037;-70
2022/04/17 11:15:53;;;;;;;14.98;3.63;;;;;;;;;;5008400;28;20041;-73
2022/04/17 11:18:23;;;;;;;12.68;3.35;;;;;;;;;;5003451;28;20026;-71
2022/04/17 11:20:53;;;;;;;12.77;3.40;;;;;;;;;;5001408;28;20133;-70
2022/04/17 11:23:58;;;;;;;10.73;3.22;;;;;;;;;;5008506;28;20381;-71
2022/04/17 11:26:43;;;;;;;15.07;3.70;;;;;;;;;;4953758;28;20050;-75
2022/04/17 11:29:09;;;;;;;14.73;4.28;;;;;;;;;;4942245;28;20041;-71
2022/04/17 11:31:35;;;;;;;11.63;4.18;;;;;;;;;;4991031;28;20037;-70
2022/04/17 11:34:01;;;;;;;15.43;3.92;;;;;;;;;;5011168;28;20508;-70
2022/04/17 11:36:28;;;;;;;14.15;3.75;;;;;;;;;;5007648;28;20243;-70
2022/04/17 11:38:55;;;;;;;10.70;4.47;;;;;;;;;;5007375;28;20508;-70
2022/04/17 11:41:24;;;;;;;14.68;5.25;;;;;;;;;;5005310;28;20702;-71
2022/04/17 11:44:00;;;;;;;21.17;6.07;;;;;;;;;;5000605;28;20059;-71
2022/04/17 11:46:26;;;;;;;11.52;6.32;;;;;;;;;;5008165;28;20033;-72
2022/04/17 11:48:55;;;;;;;16.00;5.10;;;;;;;;;;5002381;28;20026;-73
2022/04/17 11:51:21;;;;;;;20.13;5.85;;;;;;;;;;5009100;28;20414;-72
2022/04/17 11:53:48;;;;;;;14.85;4.65;;;;;;;;;;5006504;28;20516;-72
2022/04/17 11:56:14;;;;;;;10.23;5.03;;;;;;;;;;5002097;28;20409;-70
2022/04/17 11:58:40;;;;;;;10.50;3.67;;;;;;;;;;5001778;28;20509;-72
2022/04/17 12:01:07;;;;;;;9.43;3.70;;;;;;;;;;5007499;28;20053;-71
2022/04/17 12:03:38;;;;;;;14.07;3.63;;;;;;;;;;5001624;28;20026;-71
2022/04/17 12:06:06;;;;;;;8.35;2.95;;;;;;;;;;5007704;28;20127;-69
2022/04/17 12:08:34;;;;;;;11.52;3.60;;;;;;;;;;5000351;28;20040;-70
2022/04/17 12:11:01;;;;;;;6.88;3.03;;;;;;;;;;5004151;28;20112;-76
2022/04/17 12:13:28;;;;;;;10.55;3.70;;;;;;;;;;5014256;28;20042;-70
2022/04/17 12:16:01;;;;;;;11.00;3.53;;;;;;;;;;5002296;28;20104;-71
2022/04/17 12:18:29;;;;;;;8.82;3.33;;;;;;;;;;5000720;28;20041;-71
2022/04/17 12:21:02;;;;;;;10.55;3.72;;;;;;;;;;5003655;28;20029;-75
2022/04/17 12:23:29;;;;;;;9.90;3.00;;;;;;;;;;5005074;28;20136;-71
2022/04/17 12:25:56;;;;;;;11.48;3.55;;;;;;;;;;5012515;28;20030;-71
2022/04/17 12:28:23;;;;;;;5.40;3.00;;;;;;;;;;5002807;28;20065;-71
2022/04/17 12:30:49;;;;;;;7.82;3.13;;;;;;;;;;5005693;28;20029;-70
2022/04/17 12:33:22;;;;;;;14.18;4.28;;;;;;;;;;5009583;28;20512;-69
2022/04/17 12:36:01;;;;;;;8.10;3.45;;;;;;;;;;5000494;28;20449;-70
2022/04/17 12:38:27;;;;;;;11.43;5.43;;;;;;;;;;5003597;28;20676;-69
2022/04/17 12:40:53;;;;;;;12.13;5.00;;;;;;;;;;5001633;28;20025;-70
2022/04/17 12:43:20;;;;;;;12.60;3.97;;;;;;;;;;5003464;28;20037;-69
2022/04/17 12:45:54;;;;;;;11.00;4.18;;;;;;;;;;5004811;28;20463;-70
2022/04/17 12:48:28;;;;;;;13.48;5.53;;;;;;;;;;5002477;28;20029;-73
2022/04/17 12:51:20;;;;;;;12.48;5.22;;;;;;;;;;5001867;28;20133;-72
2022/04/17 12:53:46;;;;;;;14.50;4.50;;;;;;;;;;5000266;28;20060;-72
2022/04/17 12:56:12;;;;;;;15.32;5.25;;;;;;;;;;5003908;28;20034;-72
2022/04/17 12:58:48;;;;;;;13.40;5.47;;;;;;;;;;5003048;28;20045;-72
2022/04/17 13:01:39;;;;;;;11.20;5.00;;;;;;;;;;4999891;28;20054;-72
2022/04/17 13:04:21;;;;;;;14.80;5.63;;;;;;;;;;4997661;28;20030;-71
2022/04/17 13:06:50;;;;;;;12.93;5.13;;;;;;;;;;5001580;28;20042;-72
2022/04/17 13:09:23;;;;;;;11.60;4.82;;;;;;;;;;5006942;28;20029;-72
2022/04/17 13:11:51;;;;;;;15.27;7.03;;;;;;;;;;4999566;28;20026;-71
2022/04/17 13:14:19;;;;;;;13.85;6.55;;;;;;;;;;4998956;28;20137;-71
2022/04/17 13:16:49;;;;;;;10.10;5.97;;;;;;;;;;4998359;28;20054;-72
2022/04/17 13:19:16;;;;;;;13.98;6.13;;;;;;;;;;4998635;28;20025;-72
2022/04/17 13:21:42;;;;;;;11.75;5.00;;;;;;;;;;5005670;28;20050;-71
2022/04/17 13:24:15;;;;;;;16.40;5.70;;;;;;;;;;5013099;28;20033;-71
2022/04/17 13:26:41;;;;;;;12.15;6.07;;;;;;;;;;5004174;28;20631;-72
2022/04/17 13:29:08;;;;;;;10.38;5.50;;;;;;;;;;5005550;28;20034;-76
2022/04/17 13:31:35;;;;;;;15.20;6.90;;;;;;;;;;5010706;28;20029;-72
2022/04/17 13:34:01;;;;;;;16.65;6.00;;;;;;;;;;5017693;28;20034;-71
2022/04/17 13:36:27;;;;;;;21.95;5.95;;;;;;;;;;5012392;28;20022;-71
2022/04/17 13:38:54;;;;;;;22.77;6.25;;;;;;;;;;5007439;28;20228;-72
2022/04/17 13:41:20;;;;;;;15.63;6.10;;;;;;;;;;5007937;28;20041;-71
2022/04/17 13:43:46;;;;;;;20.77;7.15;;;;;;;;;;5016274;28;20543;-71
2022/04/17 13:46:12;;;;;;;26.10;6.28;;;;;;;;;;5000118;28;20038;-71
2022/04/17 13:48:38;;;;;;;21.77;7.45;;;;;;;;;;5019529;28;20488;-72
2022/04/17 13:51:07;;;;;;;21.67;7.10;;;;;;;;;;5013024;28;20596;-71
2022/04/17 13:53:34;;;;;;;26.95;8.02;;;;;;;;;;5007640;28;20022;-71
2022/04/17 13:56:00;;;;;;;16.80;6.90;;;;;;;;;;5026168;28;20036;-71
2022/04/17 13:58:29;;;;;;;25.65;7.43;;;;;;;;;;5006943;28;20021;-71
2022/04/17 14:00:58;;;;;;;25.83;7.38;;;;;;;;;;5012319;28;20045;-71
2022/04/17 14:03:24;;;;;;;22.88;7.35;;;;;;;;;;5010231;28;20149;-73
2022/04/17 14:05:52;;;;;;;28.80;8.98;;;;;;;;;;5010615;28;20516;-71
2022/04/17 14:08:18;;;;;;;24.70;7.38;;;;;;;;;;5007351;28;20026;-71
2022/04/17 14:10:44;;;;;;;22.00;7.68;;;;;;;;;;5007606;28;20101;-72
2022/04/17 14:13:11;;;;;;;17.80;6.57;;;;;;;;;;5009964;28;20686;-73
2022/04/17 14:15:37;;;;;;;25.27;9.02;;;;;;;;;;5002067;28;20420;-71
2022/04/17 14:18:03;;;;;;;28.77;8.40;;;;;;;;;;5010713;28;20032;-71
2022/04/17 14:20:30;;;;;;;20.58;8.07;;;;;;;;;;5009725;28;20092;-71
2022/04/17 14:22:56;;;;;;;19.10;6.88;;;;;;;;;;5009076;28;20029;-71
2022/04/17 14:25:22;;;;;;;22.92;8.27;;;;;;;;;;5009890;28;20033;-71
2022/04/17 14:27:48;;;;;;;27.77;7.43;;;;;;;;;;5003091;28;20213;-71
2022/04/17 14:30:15;;;;;;;23.98;8.05;;;;;;;;;;5011174;28;20034;-71
2022/04/17 14:32:41;;;;;;;34.10;8.13;;;;;;;;;;5011991;28;20369;-72
2022/04/17 14:35:07;;;;;;;18.67;8.13;;;;;;;;;;5010070;28;20037;-72
2022/04/17 14:37:34;;;;;;;20.00;7.80;;;;;;;;;;5009303;28;20377;-73
2022/04/17 14:40:00;;;;;;;30.55;8.73;;;;;;;;;;5011146;28;20021;-72
2022/04/17 14:42:26;;;;;;;17.55;8.55;;;;;;;;;;5003669;28;20386;-72
2022/04/17 14:44:56;;;;;;;26.08;8.38;;;;;;;;;;5002006;28;20764;-72
2022/04/17 14:47:22;;;;;;;18.98;8.60;;;;;;;;;;5005587;28;20149;-71
2022/04/17 14:49:48;;;;;;;18.17;8.00;;;;;;;;;;5007134;28;20032;-71
2022/04/17 14:52:17;;;;;;;24.35;8.35;;;;;;;;;;5003962;28;20030;-71
2022/04/17 14:54:43;;;;;;;22.50;8.60;;;;;;;;;;5002461;28;20026;-73